sensor_id;sensor_type;location;lat;lon;timestamp;temperature;humidity
48206;DHT22;33995;48.202;16.260;2022-09-09T00:02:09;14.50;99.90
48206;DHT22;33995;48.202;16.260;2022-09-09T00:10:40;14.40;99.90
48206;DHT22;33995;48.202;16.260;2022-09-09T00:13:34;14.50;99.90
48206;DHT22;33995;48.202;16.260;2022-09-09T00:16:24;14.40;99.90
48206;DHT22;33995;48.202;16.260;2022-09-09T00:19:29;14.30;99.90
48206;DHT22;33995;48.202;16.260;2022-09-09T00:22:25;14.30;99.90
48206;DHT22;33995;48.202;16.260;2022-09-09T00:25:11;14.30;99.90
48206;DHT22;33995;48.202;16.260;2022-09-09T00:27:49;14.40;99.90
48206;DHT22;33995;48.202;16.260;2022-09-09T00:30:29;14.30;99.90
48206;DHT22;33995;48.202;16.260;2022-09-09T00:33:08;14.20;99.90
48206;DHT22;33995;48.202;16.260;2022-09-09T00:35:46;14.20;99.90
48206;DHT22;33995;48.202;16.260;2022-09-09T00:40:55;14.20;99.90
48206;DHT22;33995;48.202;16.260;2022-09-09T00:43:32;14.20;99.90
48206;DHT22;33995;48.202;16.260;2022-09-09T00:49:24;14.10;99.90
48206;DHT22;33995;48.202;16.260;2022-09-09T00:52:36;14.00;99.90
48206;DHT22;33995;48.202;16.260;2022-09-09T00:58:25;14.20;99.90
48206;DHT22;33995;48.202;16.260;2022-09-09T01:01:25;14.20;99.90
48206;DHT22;33995;48.202;16.260;2022-09-09T01:03:58;14.20;99.90
48206;DHT22;33995;48.202;16.260;2022-09-09T01:06:36;14.10;99.90
48206;DHT22;33995;48.202;16.260;2022-09-09T01:12:40;14.20;99.90
48206;DHT22;33995;48.202;16.260;2022-09-09T01:15:37;14.00;99.90
48206;DHT22;33995;48.202;16.260;2022-09-09T01:18:14;14.00;99.90
48206;DHT22;33995;48.202;16.260;2022-09-09T01:24:34;14.00;99.90
48206;DHT22;33995;48.202;16.260;2022-09-09T01:27:08;14.10;99.90
48206;DHT22;33995;48.202;16.260;2022-09-09T01:29:39;14.00;99.90
48206;DHT22;33995;48.202;16.260;2022-09-09T01:32:45;13.90;99.90
48206;DHT22;33995;48.202;16.260;2022-09-09T01:38:04;13.80;99.90
48206;DHT22;33995;48.202;16.260;2022-09-09T01:40:35;13.90;99.90
48206;DHT22;33995;48.202;16.260;2022-09-09T01:43:04;13.90;99.90
48206;DHT22;33995;48.202;16.260;2022-09-09T01:45:36;13.80;99.90
48206;DHT22;33995;48.202;16.260;2022-09-09T01:48:19;13.80;99.90
48206;DHT22;33995;48.202;16.260;2022-09-09T01:51:02;13.80;99.90
48206;DHT22;33995;48.202;16.260;2022-09-09T01:53:33;13.80;99.90
48206;DHT22;33995;48.202;16.260;2022-09-09T01:59:07;13.80;99.90
48206;DHT22;33995;48.202;16.260;2022-09-09T02:05:37;13.70;99.90
48206;DHT22;33995;48.202;16.260;2022-09-09T02:11:18;13.70;99.90
48206;DHT22;33995;48.202;16.260;2022-09-09T02:14:12;13.70;99.90
48206;DHT22;33995;48.202;16.260;2022-09-09T02:16:54;13.70;99.90
48206;DHT22;33995;48.202;16.260;2022-09-09T02:19:46;13.70;99.90
48206;DHT22;33995;48.202;16.260;2022-09-09T02:22:27;13.70;99.90
48206;DHT22;33995;48.202;16.260;2022-09-09T02:25:12;13.70;99.90
48206;DHT22;33995;48.202;16.260;2022-09-09T02:27:48;13.80;99.90
48206;DHT22;33995;48.202;16.260;2022-09-09T02:30:22;13.80;99.90
48206;DHT22;33995;48.202;16.260;2022-09-09T02:33:11;13.80;99.90
48206;DHT22;33995;48.202;16.260;2022-09-09T02:35:46;13.70;99.90
48206;DHT22;33995;48.202;16.260;2022-09-09T02:38:24;13.70;99.90
48206;DHT22;33995;48.202;16.260;2022-09-09T02:41:02;13.70;99.90
48206;DHT22;33995;48.202;16.260;2022-09-09T02:43:34;13.60;99.90
48206;DHT22;33995;48.202;16.260;2022-09-09T02:49:40;13.70;99.90
48206;DHT22;33995;48.202;16.260;2022-09-09T02:52:17;13.60;99.90
48206;DHT22;33995;48.202;16.260;2022-09-09T02:54:49;13.60;99.90
48206;DHT22;33995;48.202;16.260;2022-09-09T02:57:28;13.70;99.90
48206;DHT22;33995;48.202;16.260;2022-09-09T03:00:00;13.60;99.90
48206;DHT22;33995;48.202;16.260;2022-09-09T03:02:32;13.60;99.90
48206;DHT22;33995;48.202;16.260;2022-09-09T03:05:06;13.60;99.90
48206;DHT22;33995;48.202;16.260;2022-09-09T03:07:49;13.70;99.90
48206;DHT22;33995;48.202;16.260;2022-09-09T03:10:21;13.70;99.90
48206;DHT22;33995;48.202;16.260;2022-09-09T03:12:51;13.60;99.90
48206;DHT22;33995;48.202;16.260;2022-09-09T03:15:23;13.60;99.90
48206;DHT22;33995;48.202;16.260;2022-09-09T03:18:10;13.60;99.90
48206;DHT22;33995;48.202;16.260;2022-09-09T03:20:55;13.50;99.90
48206;DHT22;33995;48.202;16.260;2022-09-09T03:23:37;13.50;99.90
48206;DHT22;33995;48.202;16.260;2022-09-09T03:26:05;13.40;99.90
48206;DHT22;33995;48.202;16.260;2022-09-09T03:28:42;13.40;99.90
48206;DHT22;33995;48.202;16.260;2022-09-09T03:31:27;13.50;99.90
48206;DHT22;33995;48.202;16.260;2022-09-09T03:34:04;13.60;99.90
48206;DHT22;33995;48.202;16.260;2022-09-09T03:36:37;13.70;99.90
48206;DHT22;33995;48.202;16.260;2022-09-09T03:39:08;13.60;99.90
48206;DHT22;33995;48.202;16.260;2022-09-09T03:41:38;13.60;99.90
48206;DHT22;33995;48.202;16.260;2022-09-09T03:44:19;13.50;99.90
48206;DHT22;33995;48.202;16.260;2022-09-09T03:46:49;13.50;99.90
48206;DHT22;33995;48.202;16.260;2022-09-09T03:49:33;13.60;99.90
48206;DHT22;33995;48.202;16.260;2022-09-09T03:52:01;13.50;99.90
48206;DHT22;33995;48.202;16.260;2022-09-09T03:54:30;13.50;99.90
48206;DHT22;33995;48.202;16.260;2022-09-09T03:56:59;13.40;99.90
48206;DHT22;33995;48.202;16.260;2022-09-09T03:59:30;13.40;99.90
48206;DHT22;33995;48.202;16.260;2022-09-09T04:01:59;13.40;99.90
48206;DHT22;33995;48.202;16.260;2022-09-09T04:04:32;13.30;99.90
48206;DHT22;33995;48.202;16.260;2022-09-09T04:06:59;13.30;99.90
48206;DHT22;33995;48.202;16.260;2022-09-09T04:09:34;13.30;99.90
48206;DHT22;33995;48.202;16.260;2022-09-09T04:12:04;13.20;99.90
48206;DHT22;33995;48.202;16.260;2022-09-09T04:14:36;13.20;99.90
48206;DHT22;33995;48.202;16.260;2022-09-09T04:17:05;13.10;99.90
48206;DHT22;33995;48.202;16.260;2022-09-09T04:19:35;13.20;99.90
48206;DHT22;33995;48.202;16.260;2022-09-09T04:22:04;13.10;99.90
48206;DHT22;33995;48.202;16.260;2022-09-09T04:24:35;13.10;99.90
48206;DHT22;33995;48.202;16.260;2022-09-09T04:27:04;13.10;99.90
48206;DHT22;33995;48.202;16.260;2022-09-09T04:29:36;13.10;99.90
48206;DHT22;33995;48.202;16.260;2022-09-09T04:32:03;13.10;99.90
48206;DHT22;33995;48.202;16.260;2022-09-09T04:34:35;13.10;99.90
48206;DHT22;33995;48.202;16.260;2022-09-09T04:37:18;13.20;99.90
48206;DHT22;33995;48.202;16.260;2022-09-09T04:39:49;13.20;99.90
48206;DHT22;33995;48.202;16.260;2022-09-09T04:42:28;13.10;99.90
48206;DHT22;33995;48.202;16.260;2022-09-09T04:45:06;13.00;99.90
48206;DHT22;33995;48.202;16.260;2022-09-09T04:47:43;13.00;99.90
48206;DHT22;33995;48.202;16.260;2022-09-09T04:50:14;13.10;99.90
48206;DHT22;33995;48.202;16.260;2022-09-09T04:52:46;13.10;99.90
48206;DHT22;33995;48.202;16.260;2022-09-09T04:55:18;13.10;99.90
48206;DHT22;33995;48.202;16.260;2022-09-09T04:57:50;13.00;99.90
48206;DHT22;33995;48.202;16.260;2022-09-09T05:00:27;12.90;99.90
48206;DHT22;33995;48.202;16.260;2022-09-09T05:02:57;12.90;99.90
48206;DHT22;33995;48.202;16.260;2022-09-09T05:05:27;13.00;99.90
48206;DHT22;33995;48.202;16.260;2022-09-09T05:08:11;13.10;99.90
48206;DHT22;33995;48.202;16.260;2022-09-09T05:10:40;13.10;99.90
48206;DHT22;33995;48.202;16.260;2022-09-09T05:13:11;13.10;99.90
48206;DHT22;33995;48.202;16.260;2022-09-09T05:15:51;13.10;99.90
48206;DHT22;33995;48.202;16.260;2022-09-09T05:18:24;13.10;99.90
48206;DHT22;33995;48.202;16.260;2022-09-09T05:21:01;13.10;99.90
48206;DHT22;33995;48.202;16.260;2022-09-09T05:23:31;13.20;99.90
48206;DHT22;33995;48.202;16.260;2022-09-09T05:26:06;13.20;99.90
48206;DHT22;33995;48.202;16.260;2022-09-09T05:28:37;13.20;99.90
48206;DHT22;33995;48.202;16.260;2022-09-09T05:31:09;13.10;99.90
48206;DHT22;33995;48.202;16.260;2022-09-09T05:33:46;13.10;99.90
48206;DHT22;33995;48.202;16.260;2022-09-09T05:36:19;13.10;99.90
48206;DHT22;33995;48.202;16.260;2022-09-09T05:38:53;13.20;99.90
48206;DHT22;33995;48.202;16.260;2022-09-09T05:41:26;13.30;99.90
48206;DHT22;33995;48.202;16.260;2022-09-09T05:43:56;13.40;99.90
48206;DHT22;33995;48.202;16.260;2022-09-09T05:46:30;13.40;99.90
48206;DHT22;33995;48.202;16.260;2022-09-09T05:48:58;13.40;99.90
48206;DHT22;33995;48.202;16.260;2022-09-09T05:51:32;13.50;99.90
48206;DHT22;33995;48.202;16.260;2022-09-09T05:54:08;13.50;99.90
48206;DHT22;33995;48.202;16.260;2022-09-09T05:56:41;13.50;99.90
48206;DHT22;33995;48.202;16.260;2022-09-09T05:59:12;13.50;99.90
48206;DHT22;33995;48.202;16.260;2022-09-09T06:01:59;13.50;99.90
48206;DHT22;33995;48.202;16.260;2022-09-09T06:04:35;13.60;99.90
48206;DHT22;33995;48.202;16.260;2022-09-09T06:07:06;13.60;99.90
48206;DHT22;33995;48.202;16.260;2022-09-09T06:09:36;13.60;99.90
48206;DHT22;33995;48.202;16.260;2022-09-09T06:12:05;13.60;99.90
48206;DHT22;33995;48.202;16.260;2022-09-09T06:14:36;13.60;99.90
48206;DHT22;33995;48.202;16.260;2022-09-09T06:17:15;13.60;99.90
48206;DHT22;33995;48.202;16.260;2022-09-09T06:19:47;13.80;99.90
48206;DHT22;33995;48.202;16.260;2022-09-09T06:22:33;13.90;99.90
48206;DHT22;33995;48.202;16.260;2022-09-09T06:25:03;14.10;99.90
48206;DHT22;33995;48.202;16.260;2022-09-09T06:27:48;14.40;99.90
48206;DHT22;33995;48.202;16.260;2022-09-09T06:30:19;14.70;99.90
48206;DHT22;33995;48.202;16.260;2022-09-09T06:32:56;15.00;99.90
48206;DHT22;33995;48.202;16.260;2022-09-09T06:35:27;15.10;99.90
48206;DHT22;33995;48.202;16.260;2022-09-09T06:38:15;15.50;99.90
48206;DHT22;33995;48.202;16.260;2022-09-09T06:40:52;15.60;99.90
48206;DHT22;33995;48.202;16.260;2022-09-09T06:43:24;15.40;99.90
48206;DHT22;33995;48.202;16.260;2022-09-09T06:45:58;15.50;99.90
48206;DHT22;33995;48.202;16.260;2022-09-09T06:48:31;15.50;99.90
48206;DHT22;33995;48.202;16.260;2022-09-09T06:51:08;15.50;99.90
48206;DHT22;33995;48.202;16.260;2022-09-09T06:53:40;15.40;99.90
48206;DHT22;33995;48.202;16.260;2022-09-09T06:58:47;15.60;99.90
48206;DHT22;33995;48.202;16.260;2022-09-09T07:01:25;15.60;99.90
48206;DHT22;33995;48.202;16.260;2022-09-09T07:04:01;15.70;99.90
48206;DHT22;33995;48.202;16.260;2022-09-09T07:06:33;15.60;99.90
48206;DHT22;33995;48.202;16.260;2022-09-09T07:09:15;15.70;99.90
48206;DHT22;33995;48.202;16.260;2022-09-09T07:11:50;15.70;99.90
48206;DHT22;33995;48.202;16.260;2022-09-09T07:14:31;15.90;99.90
48206;DHT22;33995;48.202;16.260;2022-09-09T07:17:13;16.10;99.90
48206;DHT22;33995;48.202;16.260;2022-09-09T07:19:48;16.30;99.90
48206;DHT22;33995;48.202;16.260;2022-09-09T07:22:19;16.70;99.90
48206;DHT22;33995;48.202;16.260;2022-09-09T07:24:51;17.00;99.90
48206;DHT22;33995;48.202;16.260;2022-09-09T07:27:25;17.00;99.90
48206;DHT22;33995;48.202;16.260;2022-09-09T07:29:57;17.00;99.90
48206;DHT22;33995;48.202;16.260;2022-09-09T07:32:38;17.00;99.90
48206;DHT22;33995;48.202;16.260;2022-09-09T07:35:12;17.00;99.90
48206;DHT22;33995;48.202;16.260;2022-09-09T07:37:40;17.20;99.90
48206;DHT22;33995;48.202;16.260;2022-09-09T07:40:22;17.40;99.90
48206;DHT22;33995;48.202;16.260;2022-09-09T07:42:50;17.90;99.90
48206;DHT22;33995;48.202;16.260;2022-09-09T07:45:23;18.10;99.90
48206;DHT22;33995;48.202;16.260;2022-09-09T07:48:06;18.30;99.90
48206;DHT22;33995;48.202;16.260;2022-09-09T07:50:37;18.70;99.90
48206;DHT22;33995;48.202;16.260;2022-09-09T07:53:07;19.10;99.90
48206;DHT22;33995;48.202;16.260;2022-09-09T07:55:38;19.20;99.90
48206;DHT22;33995;48.202;16.260;2022-09-09T07:58:09;19.20;99.90
48206;DHT22;33995;48.202;16.260;2022-09-09T08:00:44;19.20;99.90
48206;DHT22;33995;48.202;16.260;2022-09-09T08:03:15;19.00;99.90
48206;DHT22;33995;48.202;16.260;2022-09-09T08:05:46;19.00;99.90
48206;DHT22;33995;48.202;16.260;2022-09-09T08:08:18;19.10;99.90
48206;DHT22;33995;48.202;16.260;2022-09-09T08:10:48;19.10;99.90
48206;DHT22;33995;48.202;16.260;2022-09-09T08:13:21;19.10;99.90
48206;DHT22;33995;48.202;16.260;2022-09-09T08:15:50;19.30;99.90
48206;DHT22;33995;48.202;16.260;2022-09-09T08:18:27;19.30;99.90
48206;DHT22;33995;48.202;16.260;2022-09-09T08:20:57;19.40;99.90
48206;DHT22;33995;48.202;16.260;2022-09-09T08:23:32;19.40;99.90
48206;DHT22;33995;48.202;16.260;2022-09-09T08:26:17;19.40;99.90
48206;DHT22;33995;48.202;16.260;2022-09-09T08:28:52;19.40;99.90
48206;DHT22;33995;48.202;16.260;2022-09-09T08:31:36;19.70;99.90
48206;DHT22;33995;48.202;16.260;2022-09-09T08:34:08;20.00;99.90
48206;DHT22;33995;48.202;16.260;2022-09-09T08:36:50;20.20;99.90
48206;DHT22;33995;48.202;16.260;2022-09-09T08:39:26;20.40;99.90
48206;DHT22;33995;48.202;16.260;2022-09-09T08:42:13;20.30;99.90
48206;DHT22;33995;48.202;16.260;2022-09-09T08:45:18;20.50;99.90
48206;DHT22;33995;48.202;16.260;2022-09-09T08:51:15;21.20;99.90
48206;DHT22;33995;48.202;16.260;2022-09-09T08:53:49;21.30;99.90
48206;DHT22;33995;48.202;16.260;2022-09-09T08:56:25;21.30;99.90
48206;DHT22;33995;48.202;16.260;2022-09-09T08:59:00;21.40;99.90
48206;DHT22;33995;48.202;16.260;2022-09-09T09:02:27;21.30;99.90
48206;DHT22;33995;48.202;16.260;2022-09-09T09:05:26;21.40;99.90
48206;DHT22;33995;48.202;16.260;2022-09-09T09:09:12;21.50;99.90
48206;DHT22;33995;48.202;16.260;2022-09-09T09:11:23;21.90;99.90
48206;DHT22;33995;48.202;16.260;2022-09-09T09:14:03;22.10;99.90
48206;DHT22;33995;48.202;16.260;2022-09-09T09:17:02;22.20;99.90
48206;DHT22;33995;48.202;16.260;2022-09-09T09:19:40;22.20;99.90
48206;DHT22;33995;48.202;16.260;2022-09-09T09:22:40;22.10;99.90
48206;DHT22;33995;48.202;16.260;2022-09-09T09:28:16;22.40;99.90
48206;DHT22;33995;48.202;16.260;2022-09-09T09:33:52;22.70;99.90
48206;DHT22;33995;48.202;16.260;2022-09-09T09:36:44;22.40;99.90
48206;DHT22;33995;48.202;16.260;2022-09-09T09:39:31;22.40;99.90
48206;DHT22;33995;48.202;16.260;2022-09-09T09:42:29;22.40;99.90
48206;DHT22;33995;48.202;16.260;2022-09-09T09:45:32;22.60;99.90
48206;DHT22;33995;48.202;16.260;2022-09-09T09:48:09;22.70;99.90
48206;DHT22;33995;48.202;16.260;2022-09-09T09:50:53;22.50;99.90
48206;DHT22;33995;48.202;16.260;2022-09-09T09:53:31;22.40;99.90
48206;DHT22;33995;48.202;16.260;2022-09-09T09:56:12;22.60;99.90
48206;DHT22;33995;48.202;16.260;2022-09-09T09:58:55;22.70;99.90
48206;DHT22;33995;48.202;16.260;2022-09-09T10:01:36;22.80;99.90
48206;DHT22;33995;48.202;16.260;2022-09-09T10:04:18;22.90;99.90
48206;DHT22;33995;48.202;16.260;2022-09-09T10:06:53;23.00;99.90
48206;DHT22;33995;48.202;16.260;2022-09-09T10:09:34;23.20;99.90
48206;DHT22;33995;48.202;16.260;2022-09-09T10:15:43;23.30;99.90
48206;DHT22;33995;48.202;16.260;2022-09-09T10:18:42;23.40;99.90
48206;DHT22;33995;48.202;16.260;2022-09-09T10:33:58;23.10;99.90
48206;DHT22;33995;48.202;16.260;2022-09-09T10:36:32;23.00;99.90
48206;DHT22;33995;48.202;16.260;2022-09-09T10:42:14;22.90;99.90
48206;DHT22;33995;48.202;16.260;2022-09-09T10:54:16;23.90;99.90
48206;DHT22;33995;48.202;16.260;2022-09-09T10:56:56;24.30;99.90
48206;DHT22;33995;48.202;16.260;2022-09-09T10:59:33;24.50;99.90
48206;DHT22;33995;48.202;16.260;2022-09-09T11:02:30;24.40;99.90
48206;DHT22;33995;48.202;16.260;2022-09-09T11:05:26;24.20;99.90
48206;DHT22;33995;48.202;16.260;2022-09-09T11:08:03;24.20;99.90
48206;DHT22;33995;48.202;16.260;2022-09-09T11:13:49;24.00;99.90
48206;DHT22;33995;48.202;16.260;2022-09-09T11:16:56;24.00;99.90
48206;DHT22;33995;48.202;16.260;2022-09-09T11:19:42;23.80;99.90
48206;DHT22;33995;48.202;16.260;2022-09-09T11:22:32;23.50;99.90
48206;DHT22;33995;48.202;16.260;2022-09-09T11:25:26;23.20;99.90
48206;DHT22;33995;48.202;16.260;2022-09-09T11:28:32;23.30;99.90
48206;DHT22;33995;48.202;16.260;2022-09-09T11:37:28;23.50;99.90
48206;DHT22;33995;48.202;16.260;2022-09-09T11:40:26;23.50;99.90
48206;DHT22;33995;48.202;16.260;2022-09-09T11:43:05;23.60;99.90
48206;DHT22;33995;48.202;16.260;2022-09-09T11:45:35;23.70;99.90
48206;DHT22;33995;48.202;16.260;2022-09-09T11:48:04;23.60;99.90
48206;DHT22;33995;48.202;16.260;2022-09-09T11:50:39;23.80;99.90
48206;DHT22;33995;48.202;16.260;2022-09-09T11:53:22;24.10;99.90
48206;DHT22;33995;48.202;16.260;2022-09-09T11:56:10;24.30;99.90
48206;DHT22;33995;48.202;16.260;2022-09-09T12:02:14;24.20;99.90
48206;DHT22;33995;48.202;16.260;2022-09-09T12:05:12;24.20;99.90
48206;DHT22;33995;48.202;16.260;2022-09-09T12:08:16;24.20;99.90
48206;DHT22;33995;48.202;16.260;2022-09-09T12:10:59;24.20;99.90
48206;DHT22;33995;48.202;16.260;2022-09-09T12:13:32;24.30;99.90
48206;DHT22;33995;48.202;16.260;2022-09-09T12:16:01;24.40;99.90
48206;DHT22;33995;48.202;16.260;2022-09-09T12:18:37;24.60;99.90
48206;DHT22;33995;48.202;16.260;2022-09-09T12:24:43;25.00;99.90
48206;DHT22;33995;48.202;16.260;2022-09-09T12:27:26;25.20;99.90
48206;DHT22;33995;48.202;16.260;2022-09-09T12:30:01;25.30;99.90
48206;DHT22;33995;48.202;16.260;2022-09-09T12:32:30;25.20;99.90
48206;DHT22;33995;48.202;16.260;2022-09-09T12:35:21;25.00;99.90
48206;DHT22;33995;48.202;16.260;2022-09-09T12:38:19;24.90;99.90
48206;DHT22;33995;48.202;16.260;2022-09-09T12:40:58;24.70;99.90
48206;DHT22;33995;48.202;16.260;2022-09-09T12:43:27;24.60;99.90
48206;DHT22;33995;48.202;16.260;2022-09-09T12:46:01;24.50;99.90
48206;DHT22;33995;48.202;16.260;2022-09-09T12:48:40;24.40;99.90
48206;DHT22;33995;48.202;16.260;2022-09-09T12:51:32;24.20;99.90
48206;DHT22;33995;48.202;16.260;2022-09-09T12:54:01;24.10;99.90
48206;DHT22;33995;48.202;16.260;2022-09-09T12:56:33;24.00;99.90
48206;DHT22;33995;48.202;16.260;2022-09-09T12:59:04;23.90;99.90
48206;DHT22;33995;48.202;16.260;2022-09-09T13:01:35;23.80;99.90
48206;DHT22;33995;48.202;16.260;2022-09-09T13:04:23;23.60;99.90
48206;DHT22;33995;48.202;16.260;2022-09-09T13:06:53;23.50;99.90
48206;DHT22;33995;48.202;16.260;2022-09-09T13:09:23;23.40;99.90
48206;DHT22;33995;48.202;16.260;2022-09-09T13:12:00;23.30;99.90
48206;DHT22;33995;48.202;16.260;2022-09-09T13:14:32;23.30;99.90
48206;DHT22;33995;48.202;16.260;2022-09-09T13:17:05;23.20;99.90
48206;DHT22;33995;48.202;16.260;2022-09-09T13:19:36;23.10;99.90
48206;DHT22;33995;48.202;16.260;2022-09-09T13:28:02;22.90;99.90
48206;DHT22;33995;48.202;16.260;2022-09-09T13:30:37;22.80;99.90
48206;DHT22;33995;48.202;16.260;2022-09-09T13:33:20;22.80;99.90
48206;DHT22;33995;48.202;16.260;2022-09-09T13:35:49;22.80;99.90
48206;DHT22;33995;48.202;16.260;2022-09-09T13:38:29;22.70;99.90
48206;DHT22;33995;48.202;16.260;2022-09-09T13:41:08;22.60;99.90
48206;DHT22;33995;48.202;16.260;2022-09-09T13:43:45;22.50;99.90
48206;DHT22;33995;48.202;16.260;2022-09-09T13:46:40;22.50;99.90
48206;DHT22;33995;48.202;16.260;2022-09-09T13:49:28;22.40;99.90
48206;DHT22;33995;48.202;16.260;2022-09-09T13:52:08;22.40;99.90
48206;DHT22;33995;48.202;16.260;2022-09-09T13:54:37;22.30;99.90
48206;DHT22;33995;48.202;16.260;2022-09-09T13:57:23;22.30;99.90
48206;DHT22;33995;48.202;16.260;2022-09-09T13:59:53;22.20;99.90
48206;DHT22;33995;48.202;16.260;2022-09-09T14:02:35;22.10;99.90
48206;DHT22;33995;48.202;16.260;2022-09-09T14:05:06;22.00;99.90
48206;DHT22;33995;48.202;16.260;2022-09-09T14:07:52;21.90;99.90
48206;DHT22;33995;48.202;16.260;2022-09-09T14:10:24;21.70;99.90
48206;DHT22;33995;48.202;16.260;2022-09-09T14:12:53;21.30;99.90
48206;DHT22;33995;48.202;16.260;2022-09-09T14:15:23;21.10;99.90
48206;DHT22;33995;48.202;16.260;2022-09-09T14:17:53;20.70;99.90
48206;DHT22;33995;48.202;16.260;2022-09-09T14:20:24;20.50;99.90
48206;DHT22;33995;48.202;16.260;2022-09-09T14:23:11;20.40;99.90
48206;DHT22;33995;48.202;16.260;2022-09-09T14:25:43;20.20;99.90
48206;DHT22;33995;48.202;16.260;2022-09-09T14:28:12;19.90;99.90
48206;DHT22;33995;48.202;16.260;2022-09-09T14:31:13;19.90;99.90
48206;DHT22;33995;48.202;16.260;2022-09-09T14:33:50;19.70;99.90
48206;DHT22;33995;48.202;16.260;2022-09-09T14:36:23;19.60;99.90
48206;DHT22;33995;48.202;16.260;2022-09-09T14:38:57;19.40;99.90
48206;DHT22;33995;48.202;16.260;2022-09-09T14:41:39;19.30;99.90
48206;DHT22;33995;48.202;16.260;2022-09-09T14:44:11;19.30;99.90
48206;DHT22;33995;48.202;16.260;2022-09-09T14:46:39;19.20;99.90
48206;DHT22;33995;48.202;16.260;2022-09-09T14:49:12;19.20;99.90
48206;DHT22;33995;48.202;16.260;2022-09-09T14:51:44;19.20;99.90
48206;DHT22;33995;48.202;16.260;2022-09-09T14:54:20;19.20;99.90
48206;DHT22;33995;48.202;16.260;2022-09-09T14:56:51;19.20;99.90
48206;DHT22;33995;48.202;16.260;2022-09-09T14:59:24;19.00;99.90
48206;DHT22;33995;48.202;16.260;2022-09-09T15:01:59;19.00;99.90
48206;DHT22;33995;48.202;16.260;2022-09-09T15:04:34;19.00;99.90
48206;DHT22;33995;48.202;16.260;2022-09-09T15:07:09;18.90;99.90
48206;DHT22;33995;48.202;16.260;2022-09-09T15:09:45;18.80;99.90
48206;DHT22;33995;48.202;16.260;2022-09-09T15:12:24;18.90;99.90
48206;DHT22;33995;48.202;16.260;2022-09-09T15:14:55;18.80;99.90
48206;DHT22;33995;48.202;16.260;2022-09-09T15:17:25;18.80;99.90
48206;DHT22;33995;48.202;16.260;2022-09-09T15:20:49;18.80;99.90
48206;DHT22;33995;48.202;16.260;2022-09-09T15:23:19;18.80;99.90
48206;DHT22;33995;48.202;16.260;2022-09-09T15:25:55;18.80;99.90
48206;DHT22;33995;48.202;16.260;2022-09-09T15:28:29;18.70;99.90
48206;DHT22;33995;48.202;16.260;2022-09-09T15:31:00;18.80;99.90
48206;DHT22;33995;48.202;16.260;2022-09-09T15:33:37;18.70;99.90
48206;DHT22;33995;48.202;16.260;2022-09-09T15:36:23;18.70;99.90
48206;DHT22;33995;48.202;16.260;2022-09-09T15:38:52;18.70;99.90
48206;DHT22;33995;48.202;16.260;2022-09-09T15:41:22;18.80;99.90
48206;DHT22;33995;48.202;16.260;2022-09-09T15:43:55;18.80;99.90
48206;DHT22;33995;48.202;16.260;2022-09-09T15:46:58;18.70;99.90
48206;DHT22;33995;48.202;16.260;2022-09-09T15:49:27;18.70;99.90
48206;DHT22;33995;48.202;16.260;2022-09-09T15:52:01;18.60;99.90
48206;DHT22;33995;48.202;16.260;2022-09-09T15:54:33;18.50;99.90
48206;DHT22;33995;48.202;16.260;2022-09-09T15:57:04;18.50;99.90
48206;DHT22;33995;48.202;16.260;2022-09-09T15:59:37;18.50;99.90
48206;DHT22;33995;48.202;16.260;2022-09-09T16:02:05;18.50;99.90
48206;DHT22;33995;48.202;16.260;2022-09-09T16:04:38;18.50;99.90
48206;DHT22;33995;48.202;16.260;2022-09-09T16:07:10;18.50;99.90
48206;DHT22;33995;48.202;16.260;2022-09-09T16:09:40;18.50;99.90
48206;DHT22;33995;48.202;16.260;2022-09-09T16:12:09;18.40;99.90
48206;DHT22;33995;48.202;16.260;2022-09-09T16:14:43;18.30;99.90
48206;DHT22;33995;48.202;16.260;2022-09-09T16:17:14;18.30;99.90
48206;DHT22;33995;48.202;16.260;2022-09-09T16:19:44;18.30;99.90
48206;DHT22;33995;48.202;16.260;2022-09-09T16:22:20;18.30;99.90
48206;DHT22;33995;48.202;16.260;2022-09-09T16:24:50;18.30;99.90
48206;DHT22;33995;48.202;16.260;2022-09-09T16:27:21;18.30;99.90
48206;DHT22;33995;48.202;16.260;2022-09-09T16:29:57;18.20;99.90
48206;DHT22;33995;48.202;16.260;2022-09-09T16:32:29;18.10;99.90
48206;DHT22;33995;48.202;16.260;2022-09-09T16:34:58;18.00;99.90
48206;DHT22;33995;48.202;16.260;2022-09-09T16:37:29;17.90;99.90
48206;DHT22;33995;48.202;16.260;2022-09-09T16:40:11;17.90;99.90
48206;DHT22;33995;48.202;16.260;2022-09-09T16:42:40;18.00;99.90
48206;DHT22;33995;48.202;16.260;2022-09-09T16:45:12;17.90;99.90
48206;DHT22;33995;48.202;16.260;2022-09-09T16:47:56;17.90;99.90
48206;DHT22;33995;48.202;16.260;2022-09-09T16:50:30;17.90;99.90
48206;DHT22;33995;48.202;16.260;2022-09-09T16:53:12;17.90;99.90
48206;DHT22;33995;48.202;16.260;2022-09-09T16:55:54;17.90;99.90
48206;DHT22;33995;48.202;16.260;2022-09-09T16:58:23;17.90;99.90
48206;DHT22;33995;48.202;16.260;2022-09-09T17:00:58;17.90;99.90
48206;DHT22;33995;48.202;16.260;2022-09-09T17:03:32;17.80;99.90
48206;DHT22;33995;48.202;16.260;2022-09-09T17:06:14;17.80;99.90
48206;DHT22;33995;48.202;16.260;2022-09-09T17:08:44;17.80;99.90
48206;DHT22;33995;48.202;16.260;2022-09-09T17:11:27;17.80;99.90
48206;DHT22;33995;48.202;16.260;2022-09-09T17:13:58;17.80;99.90
48206;DHT22;33995;48.202;16.260;2022-09-09T17:16:30;17.70;99.90
48206;DHT22;33995;48.202;16.260;2022-09-09T17:19:00;17.50;99.90
48206;DHT22;33995;48.202;16.260;2022-09-09T17:21:30;17.50;99.90
48206;DHT22;33995;48.202;16.260;2022-09-09T17:24:00;17.50;99.90
48206;DHT22;33995;48.202;16.260;2022-09-09T17:26:30;17.40;99.90
48206;DHT22;33995;48.202;16.260;2022-09-09T17:29:06;17.40;99.90
48206;DHT22;33995;48.202;16.260;2022-09-09T17:31:37;17.40;99.90
48206;DHT22;33995;48.202;16.260;2022-09-09T17:34:07;17.40;99.90
48206;DHT22;33995;48.202;16.260;2022-09-09T17:36:39;17.30;99.90
48206;DHT22;33995;48.202;16.260;2022-09-09T17:39:08;17.30;99.90
48206;DHT22;33995;48.202;16.260;2022-09-09T17:41:40;17.20;99.90
48206;DHT22;33995;48.202;16.260;2022-09-09T17:44:10;17.10;99.90
48206;DHT22;33995;48.202;16.260;2022-09-09T17:46:52;17.20;99.90
48206;DHT22;33995;48.202;16.260;2022-09-09T17:49:27;17.20;99.90
48206;DHT22;33995;48.202;16.260;2022-09-09T17:51:57;17.10;99.90
48206;DHT22;33995;48.202;16.260;2022-09-09T17:54:27;17.10;99.90
48206;DHT22;33995;48.202;16.260;2022-09-09T17:56:59;17.10;99.90
48206;DHT22;33995;48.202;16.260;2022-09-09T17:59:29;17.00;99.90